CST,Max TemperatureF,Mean TemperatureF,Min TemperatureF,Max Dew PointF,MeanDew PointF,Min DewpointF,Max Humidity, Mean Humidity, Min Humidity, Max Sea Level PressureIn, Mean Sea Level PressureIn, Min Sea Level PressureIn, Max VisibilityMiles, Mean VisibilityMiles, Min VisibilityMiles, Max Wind SpeedMPH, Mean Wind SpeedMPH, Max Gust SpeedMPH,PrecipitationIn, CloudCover, Events, WindDirDegrees
2013-2-1,28,22,15,19,9,3,69,55,41,30.59,30.46,30.33,10,10,10,12,7,17,0.00,0,,229
2013-2-2,54,41,28,29,25,17,85,61,38,30.32,30.18,30.10,10,10,4,13,4,18,0.00,3,Snow,242
2013-2-3,50,42,33,30,25,20,82,57,31,30.18,30.13,30.06,10,10,9,21,7,28,0.00,0,,260
2013-2-4,46,40,33,41,34,26,100,83,62,30.07,29.94,29.87,10,6,0,14,4,21,0.04,3,Fog-Rain,202
2013-2-5,57,44,30,45,35,28,100,87,59,30.10,30.00,29.92,10,5,0,13,2,,0.00,2,Fog,278
2013-2-6,52,42,33,38,34,29,85,69,53,30.26,30.16,30.07,10,10,8,9,6,,0.00,0,,66
2013-2-7,62,50,39,55,45,33,94,76,58,30.07,29.94,29.87,10,9,2,17,5,23,0.33,7,Rain,306
2013-2-8,51,44,37,45,33,29,80,70,62,30.37,30.23,29.96,10,9,6,17,13,28,0.00,8,,13
2013-2-9,43,38,33,37,31,26,82,74,70,30.37,30.26,30.04,10,10,7,10,6,,0.00,6,,79
2013-2-10,60,52,44,56,47,32,94,83,45,30.02,29.82,29.67,10,8,2,17,7,25,0.81,7,Rain-Thunderstorm,171
2013-2-11,57,46,36,36,29,25,86,53,28,30.17,30.09,29.91,10,10,10,16,9,30,0.00,0,,265
2013-2-12,48,39,30,36,32,26,88,69,50,30.17,30.05,29.89,10,10,8,9,3,,0.02,3,Rain,35
2013-2-13,51,45,39,39,37,35,93,79,54,29.98,29.92,29.86,10,9,4,18,8,,0.24,5,Rain,274
2013-2-14,62,50,37,40,34,29,89,61,36,30.06,29.97,29.93,10,10,8,12,7,,0.00,0,,244
2013-2-15,46,40,30,33,25,16,61,51,34,30.26,30.19,30.08,10,10,10,20,7,20,0.00,3,,329
2013-2-16,42,34,26,21,14,7,69,48,24,30.30,30.25,30.21,10,10,10,13,7,20,0.00,1,,316
2013-2-17,52,41,30,34,29,21,78,62,46,30.22,30.14,30.01,10,10,10,16,5,21,0.00,3,,173
2013-2-18,54,46,39,50,44,31,93,80,63,30.00,29.82,29.66,10,8,2,28,13,40,0.73,6,Rain-Thunderstorm,199
2013-2-19,48,40,32,34,19,10,67,47,25,30.32,30.15,29.94,10,10,10,20,13,30,0.00,1,,298
2013-2-20,33,30,28,20,15,10,64,53,45,30.40,30.32,30.27,10,10,10,13,7,,0.00,4,,37
2013-2-21,34,31,28,32,27,19,93,81,64,30.27,29.96,29.84,10,4,1,22,12,33,1.28,8,Rain-Thunderstorm,62
2013-2-22,43,38,30,36,31,26,93,84,62,30.11,29.99,29.83,10,6,0,15,7,20,0.00,5,Fog,235
2013-2-23,44,36,27,31,26,22,89,71,58,30.11,30.05,29.99,10,10,10,10,5,,0.00,0,,306
2013-2-24,50,38,27,34,29,23,89,70,52,30.15,30.07,29.99,10,10,10,9,3,,0.00,0,,76
2013-2-25,54,46,37,39,33,27,86,62,45,30.00,29.74,29.42,10,9,3,22,12,31,0.67,4,Rain-Thunderstorm,50
2013-2-26,48,44,39,44,39,31,93,81,70,29.75,29.43,29.27,10,9,2,25,14,32,0.23,8,Rain,228
2013-2-27,42,40,37,31,29,26,73,66,57,29.96,29.86,29.74,10,10,10,15,11,25,0.00,8,,272
2013-2-28,44,39,34,31,28,25,85,68,55,30.15,30.05,29.94,10,10,5,15,8,,0.00,8,Snow,303